createdAt,value
2023-04-28T00:00:08.935Z,33.90
2023-04-28T00:03:15.627Z,33.20
2023-04-28T00:06:02.149Z,36.00
2023-04-28T00:08:49.216Z,42.00
2023-04-28T00:11:36.066Z,34.80
2023-04-28T00:14:22.334Z,37.50
2023-04-28T00:17:10.499Z,33.40
2023-04-28T00:19:57.749Z,32.00
2023-04-28T00:22:43.938Z,34.80
2023-04-28T00:25:31.184Z,34.30
2023-04-28T00:28:30.466Z,34.10
2023-04-28T00:31:19.812Z,35.50
2023-04-28T00:34:06.134Z,34.70
2023-04-28T00:36:52.383Z,26.30
2023-04-28T00:39:39.051Z,27.50
2023-04-28T00:42:27.060Z,35.80
2023-04-28T00:45:13.587Z,33.60
2023-04-28T00:48:00.611Z,38.50
2023-04-28T00:50:48.703Z,30.80
2023-04-28T00:53:35.746Z,37.50
2023-04-28T00:56:22.116Z,30.10
2023-04-28T00:59:09.096Z,44.10
2023-04-28T01:01:56.432Z,36.00
2023-04-28T01:04:47.428Z,33.20
2023-04-28T01:07:35.130Z,33.00
2023-04-28T01:10:23.417Z,38.60
2023-04-28T01:13:10.382Z,26.70
2023-04-28T01:15:57.218Z,45.80
2023-04-28T01:18:47.746Z,36.70
2023-04-28T01:21:34.807Z,37.30
2023-04-28T01:24:36.645Z,35.40
2023-04-28T01:27:25.275Z,40.00
2023-04-28T01:30:14.998Z,38.90
2023-04-28T01:33:03.617Z,37.70
2023-04-28T01:35:50.342Z,35.10
2023-04-28T01:38:36.757Z,21.00
2023-04-28T01:41:24.181Z,34.50
2023-04-28T01:44:12.011Z,38.10
2023-04-28T01:46:58.548Z,33.70
2023-04-28T01:49:48.327Z,39.60
2023-04-28T01:52:34.858Z,41.20
2023-04-28T01:55:21.624Z,43.00
2023-04-28T01:58:09.088Z,32.60
2023-04-28T02:00:55.738Z,41.00
2023-04-28T02:03:42.372Z,34.50
2023-04-28T02:06:28.766Z,33.50
2023-04-28T02:09:16.997Z,38.40
2023-04-28T02:12:03.625Z,33.50
2023-04-28T02:14:51.415Z,34.00
2023-04-28T02:17:37.756Z,38.30
2023-04-28T02:20:24.117Z,44.60
2023-04-28T02:23:11.240Z,39.40
2023-04-28T02:26:01.607Z,34.20
2023-04-28T02:28:49.195Z,50.60
2023-04-28T02:31:35.776Z,47.50
2023-04-28T02:34:21.960Z,43.70
2023-04-28T02:37:08.539Z,38.40
2023-04-28T02:39:54.704Z,38.90
2023-04-28T02:42:42.146Z,35.20
2023-04-28T02:45:28.897Z,16.10
2023-04-28T02:48:16.070Z,33.60
2023-04-28T02:51:03.315Z,43.30
2023-04-28T02:53:49.724Z,41.60
2023-04-28T02:56:37.336Z,32.10
2023-04-28T02:59:25.288Z,38.70
2023-04-28T03:02:12.677Z,40.90
2023-04-28T03:04:59.589Z,38.30
2023-04-28T03:07:46.245Z,40.10
2023-04-28T03:10:33.172Z,33.90
2023-04-28T03:13:20.239Z,45.70
2023-04-28T03:16:08.034Z,38.10
2023-04-28T03:18:54.812Z,52.00
2023-04-28T03:21:41.413Z,46.50
2023-04-28T03:24:27.734Z,46.30
2023-04-28T03:27:14.065Z,39.70
2023-04-28T03:30:00.500Z,48.40
2023-04-28T03:32:46.901Z,42.50
2023-04-28T03:35:33.637Z,47.20
2023-04-28T03:38:21.252Z,38.90
2023-04-28T03:41:07.669Z,39.00
2023-04-28T03:44:14.138Z,39.30
2023-04-28T03:47:08.402Z,39.00
2023-04-28T03:49:55.076Z,38.40
2023-04-28T03:52:41.547Z,43.60
2023-04-28T03:55:28.479Z,38.30
2023-04-28T03:58:15.286Z,34.20
2023-04-28T04:01:01.862Z,35.30
2023-04-28T04:03:48.327Z,34.90
2023-04-28T04:06:35.434Z,31.70
2023-04-28T04:09:21.879Z,34.60
2023-04-28T04:12:08.393Z,30.10
2023-04-28T04:14:55.093Z,44.10
2023-04-28T04:17:41.754Z,44.70
2023-04-28T04:20:28.281Z,35.10
2023-04-28T04:23:14.964Z,33.00
2023-04-28T04:26:01.341Z,30.70
2023-04-28T04:28:47.888Z,29.20
2023-04-28T04:31:35.733Z,29.90
2023-04-28T04:34:22.878Z,34.50
2023-04-28T04:37:10.901Z,35.50
2023-04-28T04:40:03.552Z,28.60
2023-04-28T04:42:53.790Z,32.50
2023-04-28T04:45:41.032Z,33.00
2023-04-28T04:48:28.197Z,26.00
2023-04-28T04:51:15.053Z,34.70
2023-04-28T04:54:01.854Z,36.20
2023-04-28T04:56:48.764Z,36.10
2023-04-28T04:59:38.929Z,34.10
2023-04-28T05:02:29.689Z,41.90
2023-04-28T05:05:21.789Z,36.90
2023-04-28T05:08:24.891Z,42.40
2023-04-28T05:11:11.764Z,37.20
2023-04-28T05:13:58.841Z,39.20
2023-04-28T05:16:45.777Z,39.50
2023-04-28T05:19:36.998Z,43.60
2023-04-28T05:22:23.833Z,36.00
2023-04-28T05:25:10.564Z,38.70
2023-04-28T05:27:57.452Z,38.40
2023-04-28T05:30:44.989Z,45.10
2023-04-28T05:33:31.645Z,43.80
2023-04-28T05:36:18.546Z,37.10
2023-04-28T05:39:05.623Z,42.10
2023-04-28T05:41:53.283Z,48.00
2023-04-28T05:44:41.707Z,39.10
2023-04-28T05:47:30.359Z,33.10
2023-04-28T05:50:16.896Z,30.70
2023-04-28T05:53:03.879Z,32.40
2023-04-28T05:55:50.644Z,30.20
2023-04-28T05:58:38.558Z,33.80
2023-04-28T06:01:25.219Z,22.60
2023-04-28T06:04:12.327Z,18.90
2023-04-28T06:06:58.927Z,20.70
2023-04-28T06:09:45.763Z,17.10
2023-04-28T06:12:32.299Z,16.80
2023-04-28T06:15:18.847Z,15.60
2023-04-28T06:18:07.548Z,13.60
2023-04-28T06:20:54.497Z,16.60
2023-04-28T06:23:42.279Z,19.00
2023-04-28T06:26:29.247Z,13.20
2023-04-28T06:29:15.958Z,15.40
2023-04-28T06:32:03.120Z,13.10
2023-04-28T06:34:49.836Z,15.00
2023-04-28T06:37:36.352Z,10.90
2023-04-28T06:40:23.497Z,14.40
2023-04-28T06:43:14.204Z,15.70
2023-04-28T06:46:08.125Z,11.50
2023-04-28T06:48:56.024Z,10.50
2023-04-28T06:51:42.987Z,9.20
2023-04-28T06:54:29.630Z,6.60
2023-04-28T06:57:16.359Z,7.50
2023-04-28T07:00:04.179Z,10.20
2023-04-28T07:02:50.747Z,7.00
2023-04-28T07:05:37.323Z,7.70
2023-04-28T07:08:23.719Z,10.90
2023-04-28T07:11:10.001Z,7.90
2023-04-28T07:13:56.662Z,7.30
2023-04-28T07:16:43.388Z,6.70
2023-04-28T07:19:29.955Z,5.80
2023-04-28T07:22:17.317Z,5.80
2023-04-28T07:25:04.673Z,7.20
2023-04-28T07:27:51.361Z,4.50
2023-04-28T07:30:37.594Z,7.70
2023-04-28T07:33:24.323Z,5.90
2023-04-28T07:36:10.843Z,10.10
2023-04-28T07:38:57.411Z,4.70
2023-04-28T07:41:43.737Z,6.00
2023-04-28T07:44:31.479Z,3.40
2023-04-28T07:47:18.077Z,3.50
2023-04-28T07:50:06.390Z,3.70
2023-04-28T07:52:53.400Z,6.30
2023-04-28T07:55:42.138Z,3.60
2023-04-28T07:58:28.651Z,3.10
2023-04-28T08:01:15.082Z,2.30
2023-04-28T08:04:01.428Z,6.40
2023-04-28T08:06:48.239Z,2.40
2023-04-28T08:09:35.591Z,4.00
2023-04-28T08:12:22.067Z,5.10
2023-04-28T08:15:09.960Z,3.30
2023-04-28T08:17:56.720Z,3.60
2023-04-28T08:20:43.078Z,3.40
2023-04-28T08:23:32.094Z,5.60
2023-04-28T08:26:18.905Z,7.20
2023-04-28T08:29:06.043Z,2.70
2023-04-28T08:31:52.885Z,3.50
2023-04-28T08:34:39.852Z,3.60
2023-04-28T08:37:29.326Z,4.80
2023-04-28T08:40:15.757Z,7.90
2023-04-28T08:43:02.031Z,3.20
2023-04-28T08:45:48.581Z,3.40
2023-04-28T08:48:45.222Z,2.70
2023-04-28T08:51:40.905Z,3.50
2023-04-28T08:54:32.008Z,3.40
2023-04-28T08:57:21.805Z,3.10
2023-04-28T09:02:58.687Z,3.90
2023-04-28T09:05:47.167Z,3.90
2023-04-28T09:08:34.155Z,2.70
2023-04-28T09:11:21.101Z,3.50
2023-04-28T09:14:13.900Z,3.20
2023-04-28T09:17:01.542Z,3.20
2023-04-28T09:19:48.387Z,2.80
2023-04-28T09:22:35.351Z,4.70
2023-04-28T09:25:23.627Z,3.50
2023-04-28T09:28:23.347Z,2.60
2023-04-28T09:31:27.394Z,2.50
2023-04-28T09:34:14.308Z,3.50
2023-04-28T09:37:14.396Z,3.90
2023-04-28T09:40:05.573Z,3.20
2023-04-28T09:42:52.239Z,2.50
2023-04-28T09:45:42.629Z,2.60
2023-04-28T09:48:32.145Z,3.10
2023-04-28T09:51:21.309Z,3.00
2023-04-28T09:54:08.117Z,4.60
2023-04-28T09:56:55.749Z,3.10
2023-04-28T09:59:47.120Z,3.80
2023-04-28T10:05:28.259Z,2.70
2023-04-28T10:08:15.326Z,2.50
2023-04-28T10:11:02.238Z,3.50
2023-04-28T10:13:49.790Z,4.70
2023-04-28T10:16:36.349Z,3.50
2023-04-28T10:19:22.767Z,5.10
2023-04-28T10:22:20.100Z,2.60
2023-04-28T10:25:12.673Z,4.60
2023-04-28T10:28:01.039Z,3.80
2023-04-28T10:31:10.988Z,3.00
2023-04-28T10:34:24.537Z,4.50
2023-04-28T10:37:11.150Z,4.50
2023-04-28T10:40:31.765Z,5.50
2023-04-28T10:43:33.274Z,4.00
2023-04-28T10:46:19.536Z,4.60
2023-04-28T10:49:07.041Z,3.60
2023-04-28T10:51:53.651Z,4.20
2023-04-28T10:54:39.950Z,2.70
2023-04-28T10:57:27.199Z,6.50
2023-04-28T11:00:30.880Z,3.10
2023-04-28T11:03:52.128Z,4.30
2023-04-28T11:06:47.089Z,3.20
2023-04-28T11:09:33.647Z,2.10
2023-04-28T11:12:20.233Z,3.20
2023-04-28T11:15:13.289Z,4.30
2023-04-28T11:18:04.500Z,3.30
2023-04-28T11:20:58.024Z,3.50
2023-04-28T11:23:46.064Z,1.80
2023-04-28T11:26:38.387Z,2.90
2023-04-28T11:29:50.886Z,2.40
2023-04-28T11:32:39.281Z,3.80
2023-04-28T11:35:25.933Z,3.00
2023-04-28T11:38:12.201Z,3.10
2023-04-28T11:40:58.933Z,4.90
2023-04-28T11:43:47.634Z,2.50
2023-04-28T11:46:34.278Z,5.90
2023-04-28T11:49:21.832Z,3.10
2023-04-28T11:52:09.806Z,3.00
2023-04-28T11:54:59.250Z,2.50
2023-04-28T11:57:45.748Z,3.00
2023-04-28T12:00:32.320Z,4.00
2023-04-28T12:03:19.204Z,2.70
2023-04-28T12:06:05.729Z,2.40
2023-04-28T12:08:52.961Z,3.70
2023-04-28T12:11:52.541Z,3.80
2023-04-28T12:14:58.320Z,4.20
2023-04-28T12:17:45.627Z,4.80
2023-04-28T12:20:39.562Z,2.80
2023-04-28T12:23:31.206Z,2.40
2023-04-28T12:26:25.673Z,3.70
2023-04-28T12:29:41.172Z,4.30
2023-04-28T12:32:44.472Z,3.30
2023-04-28T12:35:30.960Z,5.80
2023-04-28T12:38:18.034Z,3.50
2023-04-28T12:41:05.026Z,2.70
2023-04-28T12:43:51.344Z,3.80
2023-04-28T12:46:38.053Z,7.10
2023-04-28T12:49:24.895Z,3.80
2023-04-28T12:52:11.250Z,3.30
2023-04-28T12:54:57.776Z,4.30
2023-04-28T12:57:44.381Z,4.50
2023-04-28T13:00:31.257Z,5.20
2023-04-28T13:03:18.937Z,3.30
2023-04-28T13:06:06.114Z,5.20
2023-04-28T13:08:52.478Z,5.70
2023-04-28T13:11:39.574Z,4.40
2023-04-28T13:14:26.351Z,5.20
2023-04-28T13:17:12.728Z,6.70
2023-04-28T13:19:59.066Z,7.60
2023-04-28T13:22:45.272Z,5.10
2023-04-28T13:25:31.589Z,6.60
2023-04-28T13:28:18.168Z,5.20
2023-04-28T13:31:04.857Z,5.20
2023-04-28T13:33:51.479Z,4.50
2023-04-28T13:36:37.672Z,5.30
2023-04-28T13:39:24.316Z,4.80
2023-04-28T13:42:13.166Z,4.80
2023-04-28T13:44:59.598Z,4.50
2023-04-28T13:47:46.124Z,8.00
2023-04-28T13:50:32.726Z,6.10
2023-04-28T13:53:19.063Z,5.70
2023-04-28T13:56:06.717Z,5.20
2023-04-28T13:58:52.877Z,7.10
2023-04-28T14:01:39.350Z,4.20
2023-04-28T14:04:26.229Z,7.00
2023-04-28T14:07:12.959Z,6.70
2023-04-28T14:09:59.981Z,8.10
2023-04-28T14:12:46.325Z,4.90
2023-04-28T14:15:33.185Z,7.30
2023-04-28T14:18:19.886Z,6.80
2023-04-28T14:21:08.417Z,6.50
2023-04-28T14:23:55.387Z,5.30
2023-04-28T14:26:43.938Z,5.70
2023-04-28T14:29:30.511Z,6.30
2023-04-28T14:32:20.989Z,9.60
2023-04-28T14:35:08.408Z,5.60
2023-04-28T14:37:55.030Z,7.90
2023-04-28T14:40:43.007Z,7.00
2023-04-28T14:43:29.697Z,7.30
2023-04-28T14:46:19.665Z,6.40
2023-04-28T14:49:06.272Z,9.50
2023-04-28T14:51:53.207Z,8.90
2023-04-28T14:54:39.596Z,6.60
2023-04-28T14:57:26.803Z,8.80
2023-04-28T15:00:14.007Z,5.50
2023-04-28T15:03:00.428Z,6.60
2023-04-28T15:05:47.224Z,6.40
2023-04-28T15:08:34.921Z,6.70
2023-04-28T15:11:21.501Z,5.00
2023-04-28T15:14:08.025Z,7.50
2023-04-28T15:16:54.592Z,7.60
2023-04-28T15:19:41.270Z,5.40
2023-04-28T15:22:27.511Z,7.20
2023-04-28T15:25:14.044Z,6.40
2023-04-28T15:28:00.451Z,6.90
2023-04-28T15:30:47.455Z,7.40
2023-04-28T15:33:34.019Z,7.30
2023-04-28T15:36:20.536Z,7.20
2023-04-28T15:39:07.624Z,6.60
2023-04-28T15:41:53.861Z,9.80
2023-04-28T15:44:40.511Z,6.20
2023-04-28T15:47:26.891Z,7.10
2023-04-28T15:50:13.991Z,6.70
2023-04-28T15:53:00.617Z,8.50
2023-04-28T15:55:47.348Z,8.60
2023-04-28T15:58:33.455Z,10.50
2023-04-28T16:01:22.132Z,7.00
2023-04-28T16:04:08.704Z,7.80
2023-04-28T16:06:55.634Z,13.00
2023-04-28T16:09:42.051Z,10.90
2023-04-28T16:12:28.810Z,8.50
2023-04-28T16:15:15.045Z,8.20
2023-04-28T16:18:02.164Z,8.70
2023-04-28T16:20:49.208Z,8.50
2023-04-28T16:23:36.010Z,10.50
2023-04-28T16:26:22.413Z,7.20
2023-04-28T16:29:09.365Z,7.90
2023-04-28T16:31:56.528Z,6.30
2023-04-28T16:34:42.873Z,11.00
2023-04-28T16:37:29.466Z,7.30
2023-04-28T16:40:16.194Z,5.30
2023-04-28T16:43:02.495Z,7.70
2023-04-28T16:45:49.480Z,8.10
2023-04-28T16:48:35.807Z,8.80
2023-04-28T16:51:22.789Z,10.40
2023-04-28T16:54:09.361Z,7.30
2023-04-28T16:56:56.304Z,6.40
2023-04-28T16:59:42.766Z,7.70
2023-04-28T17:02:29.859Z,6.40
2023-04-28T17:05:17.116Z,6.00
2023-04-28T17:08:03.823Z,7.20
2023-04-28T17:10:50.017Z,6.70
2023-04-28T17:13:36.569Z,7.10
2023-04-28T17:16:23.000Z,8.20
2023-04-28T17:19:09.892Z,9.20
2023-04-28T17:21:56.422Z,9.10
2023-04-28T17:24:44.714Z,11.00
2023-04-28T17:27:31.683Z,7.20
2023-04-28T17:30:18.063Z,8.00
2023-04-28T17:33:05.201Z,12.20
2023-04-28T17:35:52.082Z,16.40
2023-04-28T17:38:38.766Z,9.60
2023-04-28T17:41:26.077Z,8.00
2023-04-28T17:44:12.901Z,10.00
2023-04-28T17:47:01.230Z,10.00
2023-04-28T17:49:47.868Z,9.80
2023-04-28T17:52:34.944Z,9.30
2023-04-28T17:55:21.685Z,13.20
2023-04-28T17:58:08.083Z,9.60
2023-04-28T18:01:05.315Z,12.10
2023-04-28T18:03:52.086Z,6.90
2023-04-28T18:06:38.297Z,8.50
2023-04-28T18:09:25.650Z,8.10
2023-04-28T18:12:12.562Z,11.00
2023-04-28T18:14:59.224Z,10.70
2023-04-28T18:17:46.105Z,11.70
2023-04-28T18:20:32.474Z,10.60
2023-04-28T18:23:20.358Z,9.40
2023-04-28T18:26:07.040Z,9.40
2023-04-28T18:28:53.563Z,11.70
2023-04-28T18:31:41.996Z,19.30
2023-04-28T18:34:28.765Z,19.20
2023-04-28T18:37:15.660Z,19.10
2023-04-28T18:40:02.478Z,24.60
2023-04-28T18:42:48.953Z,16.50
2023-04-28T18:45:37.234Z,13.40
2023-04-28T18:48:23.768Z,13.00
2023-04-28T18:51:10.389Z,18.10
2023-04-28T18:53:57.265Z,20.70
2023-04-28T18:56:44.533Z,20.00
2023-04-28T18:59:30.838Z,21.10
2023-04-28T19:02:17.740Z,20.40
2023-04-28T19:05:05.791Z,21.10
2023-04-28T19:07:52.214Z,19.00
2023-04-28T19:10:38.807Z,16.60
2023-04-28T19:13:25.764Z,15.80
2023-04-28T19:16:12.061Z,21.40
2023-04-28T19:18:58.502Z,25.10
2023-04-28T19:21:45.189Z,20.90
2023-04-28T19:24:31.252Z,19.40
2023-04-28T19:27:17.671Z,17.60
2023-04-28T19:30:06.345Z,23.40
2023-04-28T19:32:53.013Z,26.70
2023-04-28T19:35:40.080Z,24.30
2023-04-28T19:38:26.669Z,19.20
2023-04-28T19:41:12.984Z,21.90
2023-04-28T19:43:59.503Z,20.00
2023-04-28T19:46:46.340Z,15.50
2023-04-28T19:49:34.534Z,17.50
2023-04-28T19:52:22.019Z,13.60
2023-04-28T19:55:08.699Z,14.60
2023-04-28T19:57:57.209Z,14.90
2023-04-28T20:00:43.551Z,19.00
2023-04-28T20:03:31.583Z,17.30
2023-04-28T20:06:18.868Z,20.30
2023-04-28T20:09:06.428Z,16.40
2023-04-28T20:11:53.230Z,15.90
2023-04-28T20:14:40.126Z,17.80
2023-04-28T20:17:26.897Z,14.20
2023-04-28T20:20:13.851Z,14.10
2023-04-28T20:23:00.396Z,13.80
2023-04-28T20:25:47.149Z,12.60
2023-04-28T20:28:33.617Z,12.10
2023-04-28T20:31:20.671Z,10.80
2023-04-28T20:34:08.249Z,16.80
2023-04-28T20:36:54.574Z,18.90
2023-04-28T20:39:41.025Z,18.40
2023-04-28T20:42:28.087Z,15.10
2023-04-28T20:45:15.184Z,16.00
2023-04-28T20:48:02.544Z,15.60
2023-04-28T20:50:52.758Z,16.40
2023-04-28T20:53:39.856Z,17.20
2023-04-28T20:56:27.607Z,15.50
2023-04-28T20:59:13.879Z,14.40
2023-04-28T21:02:00.761Z,17.70
2023-04-28T21:04:47.752Z,12.10
2023-04-28T21:07:34.690Z,15.50
2023-04-28T21:10:21.331Z,14.60
2023-04-28T21:13:11.087Z,10.30
2023-04-28T21:15:57.577Z,13.00
2023-04-28T21:18:46.091Z,12.70
2023-04-28T21:21:34.524Z,14.70
2023-04-28T21:24:21.938Z,13.00
2023-04-28T21:27:08.794Z,13.00
2023-04-28T21:29:55.204Z,14.00
2023-04-28T21:32:42.088Z,15.30
2023-04-28T21:35:31.277Z,15.40
2023-04-28T21:38:17.763Z,11.40
2023-04-28T21:41:07.514Z,13.60
2023-04-28T21:43:56.332Z,13.40
2023-04-28T21:46:42.583Z,14.00
2023-04-28T21:49:29.242Z,13.00
2023-04-28T21:52:17.365Z,10.80
2023-04-28T21:55:04.442Z,11.60
2023-04-28T21:57:51.230Z,16.00
2023-04-28T22:00:44.733Z,13.30
2023-04-28T22:03:35.453Z,11.40
2023-04-28T22:06:22.492Z,14.40
2023-04-28T22:09:09.258Z,13.10
2023-04-28T22:11:56.076Z,11.80
2023-04-28T22:14:42.918Z,15.90
2023-04-28T22:17:29.423Z,13.40
2023-04-28T22:20:16.121Z,16.60
2023-04-28T22:23:02.744Z,16.90
2023-04-28T22:25:50.283Z,16.20
2023-04-28T22:28:37.578Z,15.90
2023-04-28T22:31:23.952Z,15.40
2023-04-28T22:34:10.919Z,14.70
2023-04-28T22:36:57.608Z,16.30
2023-04-28T22:39:44.294Z,16.40
2023-04-28T22:42:31.282Z,14.20
2023-04-28T22:45:17.555Z,13.20
2023-04-28T22:48:05.418Z,13.50
2023-04-28T22:50:52.345Z,19.20
2023-04-28T22:53:38.754Z,16.70
2023-04-28T22:56:25.166Z,12.00
2023-04-28T22:59:11.913Z,15.20
2023-04-28T23:01:58.306Z,15.80
2023-04-28T23:04:45.889Z,14.20
2023-04-28T23:07:32.376Z,14.10
2023-04-28T23:10:19.077Z,17.80
2023-04-28T23:13:06.203Z,19.40
2023-04-28T23:15:53.194Z,13.60
2023-04-28T23:18:39.578Z,13.50
2023-04-28T23:21:26.317Z,12.90
2023-04-28T23:24:13.503Z,14.80
2023-04-28T23:27:00.220Z,16.10
2023-04-28T23:29:46.602Z,14.50
2023-04-28T23:32:35.679Z,16.60
2023-04-28T23:35:22.417Z,15.10
2023-04-28T23:38:08.859Z,12.60
2023-04-28T23:40:55.335Z,14.40
2023-04-28T23:43:41.795Z,16.30
2023-04-28T23:46:29.040Z,12.00
2023-04-28T23:49:16.621Z,15.30
2023-04-28T23:52:03.973Z,12.70
2023-04-28T23:54:50.566Z,16.90
2023-04-28T23:57:37.587Z,12.60
